Time;durP1;ratioP1;P1;durP2;ratioP2;P2;SDS_P1;SDS_P2;PMS_P1;PMS_P2;Temp;Humidity;BMP_temperature;BMP_pressure;BME280_temperature;BME280_humidity;BME280_pressure;Samples;Min_cycle;Max_cycle;Signal;HPM_P1;HPM_P2
2023/09/08 00:00:56;;;;;;;0.43;0.40;;;21.60;99.90;;;;;;4926405;28;20064;-70
2023/09/08 00:03:21;;;;;;;0.63;0.63;;;21.60;99.90;;;;;;4987434;28;20048;-70
2023/09/08 00:05:47;;;;;;;0.40;0.40;;;21.60;99.90;;;;;;4911941;28;20040;-70
2023/09/08 00:08:12;;;;;;;0.13;0.10;;;21.50;99.90;;;;;;4961563;28;20055;-70
2023/09/08 00:10:38;;;;;;;0.22;0.17;;;21.50;99.90;;;;;;4948472;28;20040;-70
2023/09/08 00:13:04;;;;;;;0.00;0.00;;;21.50;99.90;;;;;;4903339;28;20045;-70
2023/09/08 00:15:29;;;;;;;0.70;0.45;;;21.40;99.90;;;;;;4951272;28;20128;-70
2023/09/08 00:17:57;;;;;;;0.40;0.40;;;21.50;99.90;;;;;;4971972;28;20088;-70
2023/09/08 00:20:23;;;;;;;0.32;0.32;;;21.40;99.90;;;;;;4954365;28;20052;-70
2023/09/08 00:22:48;;;;;;;0.80;0.52;;;21.40;99.90;;;;;;4956813;28;20666;-70
2023/09/08 00:25:14;;;;;;;0.00;0.00;;;21.40;99.90;;;;;;4969050;28;20048;-70
2023/09/08 00:27:39;;;;;;;0.20;0.20;;;21.30;99.90;;;;;;4956239;28;20058;-70
2023/09/08 00:30:06;;;;;;;0.35;0.22;;;21.30;99.90;;;;;;4974565;28;20045;-70
2023/09/08 00:32:31;;;;;;;4.18;0.65;;;21.30;99.90;;;;;;4955499;28;20058;-70
2023/09/08 00:34:57;;;;;;;0.20;0.20;;;21.30;99.90;;;;;;4965063;28;20053;-70
2023/09/08 00:37:23;;;;;;;0.45;0.25;;;21.20;99.90;;;;;;4971052;28;20077;-70
2023/09/08 00:39:49;;;;;;;0.00;0.00;;;21.20;99.90;;;;;;4961103;28;20050;-70
2023/09/08 00:42:15;;;;;;;0.00;0.00;;;21.20;99.90;;;;;;4933668;28;20528;-70
2023/09/08 00:44:40;;;;;;;0.65;0.17;;;21.10;99.90;;;;;;4943113;28;20040;-70
2023/09/08 00:47:06;;;;;;;0.45;0.45;;;21.10;99.90;;;;;;4916991;28;20042;-70
2023/09/08 00:49:32;;;;;;;0.43;0.43;;;21.10;99.90;;;;;;4971419;28;20099;-70
2023/09/08 00:51:58;;;;;;;0.32;0.25;;;21.10;99.90;;;;;;4953172;28;20043;-70
2023/09/08 00:54:23;;;;;;;1.35;0.45;;;21.00;99.90;;;;;;4972050;28;20104;-70
2023/09/08 00:56:57;;;;;;;1.20;0.60;;;21.00;99.90;;;;;;4929976;28;20054;-70
2023/09/08 00:59:24;;;;;;;2.55;1.52;;;20.90;99.90;;;;;;4919841;28;20049;-70
2023/09/08 01:01:50;;;;;;;0.50;0.50;;;20.90;99.90;;;;;;4930511;28;20057;-70
2023/09/08 01:04:16;;;;;;;0.80;0.50;;;20.90;99.90;;;;;;4994898;28;20047;-70
2023/09/08 01:06:42;;;;;;;0.55;0.55;;;20.90;99.90;;;;;;4956085;28;20119;-70
2023/09/08 01:09:09;;;;;;;0.00;0.00;;;20.90;99.90;;;;;;4959051;28;20454;-70
2023/09/08 01:11:35;;;;;;;0.22;0.22;;;20.80;99.90;;;;;;4961338;28;20073;-70
2023/09/08 01:14:01;;;;;;;1.25;1.15;;;20.80;99.90;;;;;;4954412;28;20073;-70
2023/09/08 01:16:26;;;;;;;0.00;0.00;;;20.80;99.90;;;;;;4970521;28;20079;-70
2023/09/08 01:18:52;;;;;;;2.63;1.20;;;20.80;99.90;;;;;;4949831;28;20048;-70
2023/09/08 01:21:35;;;;;;;0.10;0.10;;;20.70;99.90;;;;;;4923664;28;20063;-69
2023/09/08 01:24:34;;;;;;;8.27;1.30;;;20.80;99.90;;;;;;4942500;28;20471;-70
2023/09/08 01:27:01;;;;;;;0.10;0.10;;;20.70;99.90;;;;;;4900994;28;20140;-70
2023/09/08 01:29:27;;;;;;;0.70;0.43;;;20.70;99.90;;;;;;4953802;28;20518;-70
2023/09/08 01:31:53;;;;;;;0.73;0.60;;;20.60;99.90;;;;;;4950839;28;20056;-70
2023/09/08 01:34:26;;;;;;;0.00;0.00;;;20.60;99.90;;;;;;5144709;27;20581;-70
2023/09/08 01:36:52;;;;;;;0.50;0.38;;;20.60;99.90;;;;;;5142155;27;20046;-70
2023/09/08 01:39:17;;;;;;;0.47;0.38;;;20.60;99.90;;;;;;5141495;27;20058;-70
2023/09/08 01:41:43;;;;;;;0.28;0.08;;;20.60;99.90;;;;;;5139816;27;20059;-70
2023/09/08 01:44:10;;;;;;;0.35;0.35;;;20.50;99.90;;;;;;5147283;27;20081;-70
2023/09/08 01:46:35;;;;;;;0.47;0.45;;;20.60;99.90;;;;;;5141739;27;20084;-70
2023/09/08 01:49:01;;;;;;;0.43;0.43;;;20.50;99.90;;;;;;5133014;27;20118;-70
2023/09/08 01:51:27;;;;;;;1.08;0.65;;;20.50;99.90;;;;;;5137855;27;20039;-70
2023/09/08 01:53:52;;;;;;;0.43;0.43;;;20.50;99.90;;;;;;5140990;27;20035;-70
2023/09/08 01:56:18;;;;;;;0.10;0.10;;;20.50;99.90;;;;;;5139038;27;20051;-70
2023/09/08 01:58:43;;;;;;;0.30;0.30;;;20.40;99.90;;;;;;5136364;27;20423;-70
2023/09/08 02:01:09;;;;;;;0.90;0.77;;;20.40;99.90;;;;;;5139163;27;20436;-70
2023/09/08 02:03:35;;;;;;;0.15;0.10;;;20.30;99.90;;;;;;5150291;27;20031;-70
2023/09/08 02:06:00;;;;;;;0.30;0.30;;;20.30;99.90;;;;;;5142261;27;20088;-70
2023/09/08 02:08:26;;;;;;;0.00;0.00;;;20.30;99.90;;;;;;5137270;27;20144;-70
2023/09/08 02:10:51;;;;;;;0.22;0.22;;;20.30;99.90;;;;;;5124964;28;20043;-70
2023/09/08 02:13:17;;;;;;;0.00;0.00;;;20.30;99.90;;;;;;5139488;27;20055;-70
2023/09/08 02:15:43;;;;;;;0.10;0.10;;;20.20;99.90;;;;;;5144737;27;20032;-70
2023/09/08 02:18:08;;;;;;;0.32;0.30;;;20.10;99.90;;;;;;5137441;27;20398;-70
2023/09/08 02:20:34;;;;;;;0.13;0.10;;;20.20;99.90;;;;;;5139050;27;20035;-70
2023/09/08 02:23:05;;;;;;;0.20;0.20;;;20.20;99.90;;;;;;5135972;27;20106;-70
2023/09/08 02:25:31;;;;;;;0.32;0.30;;;20.20;99.90;;;;;;5135096;27;20040;-70
2023/09/08 02:27:56;;;;;;;0.35;0.35;;;20.20;99.90;;;;;;5140588;27;20099;-70
2023/09/08 02:30:22;;;;;;;0.22;0.17;;;20.20;99.90;;;;;;5141587;27;20581;-70
2023/09/08 02:32:48;;;;;;;0.20;0.20;;;20.20;99.90;;;;;;5139098;27;20054;-70
2023/09/08 02:35:13;;;;;;;1.02;0.30;;;20.10;99.90;;;;;;5138634;27;20589;-70
2023/09/08 02:37:39;;;;;;;0.10;0.10;;;20.10;99.90;;;;;;5117745;27;20051;-70
2023/09/08 02:40:06;;;;;;;0.22;0.22;;;20.10;99.90;;;;;;5140908;27;20094;-70
2023/09/08 02:42:32;;;;;;;0.25;0.25;;;20.10;99.90;;;;;;5118429;28;20054;-70
2023/09/08 02:44:57;;;;;;;0.50;0.50;;;20.10;99.90;;;;;;5129444;27;20414;-70
2023/09/08 02:47:23;;;;;;;0.98;0.75;;;20.10;99.90;;;;;;5121664;27;20043;-70
2023/09/08 02:49:48;;;;;;;0.98;0.52;;;20.00;99.90;;;;;;5132558;27;20039;-70
2023/09/08 02:52:14;;;;;;;1.08;0.98;;;20.00;99.90;;;;;;5127195;27;20043;-70
2023/09/08 02:54:40;;;;;;;0.10;0.10;;;19.90;99.90;;;;;;5127107;27;20471;-70
2023/09/08 02:57:05;;;;;;;0.70;0.47;;;19.90;99.90;;;;;;5125779;27;20433;-70
2023/09/08 02:59:31;;;;;;;0.38;0.38;;;19.90;99.90;;;;;;5123924;27;20065;-70
2023/09/08 03:01:56;;;;;;;1.42;0.82;;;19.80;99.90;;;;;;5123833;27;20039;-70
2023/09/08 03:04:22;;;;;;;0.13;0.13;;;19.80;99.90;;;;;;5122907;27;20064;-70
2023/09/08 03:06:48;;;;;;;0.30;0.30;;;19.70;99.90;;;;;;5126760;27;20035;-70
2023/09/08 03:09:13;;;;;;;0.20;0.20;;;19.70;99.90;;;;;;5124734;27;20040;-70
2023/09/08 03:11:39;;;;;;;0.68;0.57;;;19.70;99.90;;;;;;5126116;27;20069;-70
2023/09/08 03:14:04;;;;;;;0.75;0.63;;;19.70;99.90;;;;;;5122946;27;20031;-70
2023/09/08 03:16:30;;;;;;;0.00;0.00;;;19.60;99.90;;;;;;5123650;27;20043;-70
2023/09/08 03:18:55;;;;;;;0.00;0.00;;;19.60;99.90;;;;;;5125502;27;20043;-69
2023/09/08 03:21:21;;;;;;;2.13;0.85;;;19.60;99.90;;;;;;5122123;27;20031;-70
2023/09/08 03:23:47;;;;;;;0.25;0.25;;;19.60;99.90;;;;;;5125654;27;20047;-70
2023/09/08 03:26:13;;;;;;;1.88;1.77;;;19.60;99.90;;;;;;5122370;27;20032;-70
2023/09/08 03:28:39;;;;;;;0.55;0.40;;;19.60;99.90;;;;;;5124815;27;20047;-70
2023/09/08 03:31:05;;;;;;;2.05;0.55;;;19.60;99.90;;;;;;5123924;27;20113;-70
2023/09/08 03:33:31;;;;;;;0.20;0.20;;;19.60;99.90;;;;;;5118175;27;20055;-70
2023/09/08 03:35:56;;;;;;;1.75;0.85;;;19.60;99.90;;;;;;5121678;27;20088;-70
2023/09/08 03:38:23;;;;;;;5.30;1.35;;;19.60;99.90;;;;;;5126458;27;20047;-70
2023/09/08 03:40:49;;;;;;;0.10;0.10;;;19.60;99.90;;;;;;5124516;27;20043;-70
2023/09/08 03:43:14;;;;;;;1.60;0.85;;;19.60;99.90;;;;;;5132228;27;20039;-70
2023/09/08 03:45:41;;;;;;;0.00;0.00;;;19.50;99.90;;;;;;5123217;27;20398;-70
2023/09/08 03:48:06;;;;;;;1.95;1.35;;;19.40;99.90;;;;;;5104300;28;20043;-70
2023/09/08 03:50:32;;;;;;;0.20;0.20;;;19.40;99.90;;;;;;5123092;27;20040;-70
2023/09/08 03:52:58;;;;;;;0.82;0.68;;;19.40;99.90;;;;;;5117157;27;20047;-70
2023/09/08 03:55:23;;;;;;;0.25;0.25;;;19.40;99.90;;;;;;5122116;27;20086;-70
2023/09/08 03:57:49;;;;;;;1.10;0.75;;;19.40;99.90;;;;;;5106662;28;20044;-70
2023/09/08 04:00:19;;;;;;;0.10;0.10;;;19.40;99.90;;;;;;5120263;27;20497;-70
2023/09/08 04:02:45;;;;;;;0.28;0.28;;;19.40;99.90;;;;;;5114665;27;20434;-70
2023/09/08 04:05:11;;;;;;;1.00;0.65;;;19.30;99.90;;;;;;5123356;27;20063;-70
2023/09/08 04:07:37;;;;;;;1.15;1.05;;;19.20;99.90;;;;;;5122404;27;20035;-70
2023/09/08 04:10:03;;;;;;;0.40;0.40;;;19.30;99.90;;;;;;5119394;27;20431;-70
2023/09/08 04:12:29;;;;;;;0.38;0.38;;;19.20;99.90;;;;;;5122986;27;20031;-70
2023/09/08 04:14:54;;;;;;;0.10;0.10;;;19.20;99.90;;;;;;5094164;28;20043;-70
2023/09/08 04:17:20;;;;;;;1.77;1.02;;;19.20;99.90;;;;;;5123024;27;20039;-70
2023/09/08 04:19:46;;;;;;;0.35;0.22;;;19.20;99.90;;;;;;5125500;27;20079;-70
2023/09/08 04:22:11;;;;;;;0.10;0.10;;;19.10;99.90;;;;;;5124122;27;20042;-70
2023/09/08 04:24:37;;;;;;;0.38;0.35;;;19.10;99.90;;;;;;5129349;27;20046;-70
2023/09/08 04:27:04;;;;;;;0.22;0.22;;;19.10;99.90;;;;;;5121560;27;20364;-70
2023/09/08 04:29:29;;;;;;;0.63;0.50;;;19.10;99.90;;;;;;5128785;27;20079;-70
2023/09/08 04:31:55;;;;;;;0.65;0.52;;;19.10;99.90;;;;;;5131410;27;20120;-70
2023/09/08 04:34:21;;;;;;;0.75;0.75;;;19.00;99.90;;;;;;5124116;27;20077;-70
2023/09/08 04:36:46;;;;;;;1.52;0.52;;;19.10;99.90;;;;;;5130847;27;20051;-70
2023/09/08 04:39:12;;;;;;;1.75;0.77;;;19.00;99.90;;;;;;5119259;27;20034;-70
2023/09/08 04:41:37;;;;;;;0.38;0.30;;;19.10;99.90;;;;;;5116116;27;20074;-70
2023/09/08 04:44:04;;;;;;;0.52;0.40;;;19.10;99.90;;;;;;5124716;27;20085;-70
2023/09/08 04:46:30;;;;;;;0.10;0.10;;;19.00;99.90;;;;;;5122135;27;20062;-70
2023/09/08 04:48:56;;;;;;;0.63;0.63;;;19.00;99.90;;;;;;5120785;27;20036;-70
2023/09/08 04:51:22;;;;;;;0.25;0.20;;;19.00;99.90;;;;;;5124937;27;20043;-70
2023/09/08 04:53:47;;;;;;;0.35;0.35;;;19.00;99.90;;;;;;5124987;27;20104;-70
2023/09/08 04:56:14;;;;;;;0.22;0.22;;;19.00;99.90;;;;;;5121791;27;20047;-70
2023/09/08 04:58:39;;;;;;;0.50;0.50;;;19.00;99.90;;;;;;5112790;27;20497;-70
2023/09/08 05:01:05;;;;;;;0.00;0.00;;;19.00;99.90;;;;;;5123278;27;20074;-70
2023/09/08 05:03:31;;;;;;;0.10;0.10;;;18.90;99.90;;;;;;5118626;27;20059;-70
2023/09/08 05:05:57;;;;;;;0.30;0.30;;;18.90;99.90;;;;;;5121410;27;20122;-69
2023/09/08 05:08:22;;;;;;;0.30;0.30;;;18.80;99.90;;;;;;5122129;27;20469;-70
2023/09/08 05:10:48;;;;;;;0.52;0.52;;;18.90;99.90;;;;;;5123685;27;20039;-70
2023/09/08 05:13:15;;;;;;;0.40;0.40;;;18.90;99.90;;;;;;5123783;27;20041;-70
2023/09/08 05:15:42;;;;;;;0.30;0.30;;;18.80;99.90;;;;;;5115486;27;20067;-70
2023/09/08 05:18:08;;;;;;;0.35;0.30;;;18.90;99.90;;;;;;5126854;27;20055;-69
2023/09/08 05:20:33;;;;;;;0.20;0.20;;;18.80;99.90;;;;;;5121474;27;20138;-70
2023/09/08 05:22:59;;;;;;;0.38;0.38;;;18.80;99.90;;;;;;5121977;27;20072;-70
2023/09/08 05:25:24;;;;;;;0.63;0.35;;;18.80;99.90;;;;;;5122019;27;20061;-70
2023/09/08 05:27:50;;;;;;;3.10;0.70;;;18.80;99.90;;;;;;5124248;27;20062;-70
2023/09/08 05:30:16;;;;;;;0.00;0.00;;;18.80;99.90;;;;;;5104638;28;20048;-70
2023/09/08 05:32:41;;;;;;;0.05;0.05;;;18.90;99.90;;;;;;5121877;28;20051;-70
2023/09/08 05:35:07;;;;;;;0.73;0.73;;;18.80;99.90;;;;;;5120720;28;20046;-70
2023/09/08 05:37:32;;;;;;;0.40;0.40;;;18.80;99.90;;;;;;5093340;28;20424;-70
2023/09/08 05:39:58;;;;;;;0.22;0.22;;;18.80;99.90;;;;;;5120626;28;20047;-70
2023/09/08 05:42:24;;;;;;;5.78;1.23;;;18.80;99.90;;;;;;5120701;28;20075;-70
2023/09/08 05:44:49;;;;;;;0.15;0.15;;;18.90;99.90;;;;;;5107896;28;20042;-70
2023/09/08 05:47:15;;;;;;;7.68;0.43;;;18.90;99.90;;;;;;5102058;28;20058;-70
2023/09/08 05:49:41;;;;;;;0.90;0.50;;;18.90;99.90;;;;;;5123996;28;20039;-70
2023/09/08 05:52:06;;;;;;;0.22;0.22;;;18.90;99.90;;;;;;5120097;28;20028;-70
2023/09/08 05:54:32;;;;;;;0.93;0.93;;;18.90;99.90;;;;;;5120466;28;20171;-70
2023/09/08 05:56:57;;;;;;;26.70;1.48;;;18.90;99.90;;;;;;5104962;28;20116;-70
2023/09/08 05:59:23;;;;;;;0.73;0.50;;;18.90;99.90;;;;;;5120109;28;20066;-70
2023/09/08 06:01:49;;;;;;;0.30;0.30;;;18.90;99.90;;;;;;5121256;28;20057;-70
2023/09/08 06:04:14;;;;;;;0.40;0.32;;;19.00;99.90;;;;;;5121344;28;20040;-70
2023/09/08 06:06:40;;;;;;;0.77;0.77;;;19.00;99.90;;;;;;5097826;28;20047;-70
2023/09/08 06:09:07;;;;;;;0.45;0.45;;;19.00;99.90;;;;;;5120265;28;20463;-70
2023/09/08 06:11:33;;;;;;;0.52;0.47;;;19.00;99.90;;;;;;5129164;28;20054;-70
2023/09/08 06:13:59;;;;;;;0.30;0.30;;;19.10;99.90;;;;;;5120176;28;20039;-70
2023/09/08 06:16:25;;;;;;;0.15;0.15;;;19.10;99.90;;;;;;5121527;28;20027;-70
2023/09/08 06:18:51;;;;;;;0.47;0.43;;;19.10;99.90;;;;;;5120524;27;20070;-70
2023/09/08 06:21:16;;;;;;;1.35;0.35;;;19.20;99.90;;;;;;5126012;27;20085;-70
2023/09/08 06:23:42;;;;;;;1.75;0.88;;;19.30;99.90;;;;;;5126815;27;20079;-70
2023/09/08 06:26:08;;;;;;;0.10;0.10;;;19.30;99.90;;;;;;5132470;27;20042;-70
2023/09/08 06:28:33;;;;;;;0.03;0.03;;;19.30;99.90;;;;;;5125237;27;20096;-70
2023/09/08 06:30:59;;;;;;;0.38;0.35;;;19.30;99.90;;;;;;5125088;27;20039;-69
2023/09/08 06:33:25;;;;;;;0.30;0.30;;;19.30;99.90;;;;;;5120722;27;20052;-69
2023/09/08 06:35:50;;;;;;;0.20;0.20;;;19.30;99.90;;;;;;5126648;27;20031;-69
2023/09/08 06:38:16;;;;;;;0.60;0.52;;;19.40;99.90;;;;;;5121337;27;20070;-69
2023/09/08 06:40:42;;;;;;;0.30;0.10;;;19.40;99.90;;;;;;5120940;27;20039;-69
2023/09/08 06:43:07;;;;;;;2.03;0.65;;;19.50;99.90;;;;;;5126359;27;20058;-69
2023/09/08 06:45:33;;;;;;;0.70;0.43;;;19.50;99.90;;;;;;5125403;27;20085;-69
2023/09/08 06:47:59;;;;;;;0.20;0.20;;;19.50;99.90;;;;;;5126982;27;20486;-70
2023/09/08 06:50:26;;;;;;;0.30;0.30;;;19.60;99.90;;;;;;5126359;27;20039;-69
2023/09/08 06:52:52;;;;;;;0.10;0.03;;;19.60;99.90;;;;;;5120234;27;20086;-69
2023/09/08 06:55:19;;;;;;;0.50;0.50;;;19.60;99.90;;;;;;5110354;28;20085;-69
2023/09/08 06:57:45;;;;;;;0.28;0.28;;;19.70;99.90;;;;;;5123839;27;20104;-69
2023/09/08 07:00:12;;;;;;;0.45;0.45;;;19.70;99.90;;;;;;5128828;27;20077;-69
2023/09/08 07:02:38;;;;;;;0.52;0.15;;;19.80;99.90;;;;;;5126488;27;20150;-69
2023/09/08 07:05:07;;;;;;;0.08;0.08;;;19.80;99.90;;;;;;5124732;27;20043;-69
2023/09/08 07:07:34;;;;;;;0.30;0.30;;;19.90;99.90;;;;;;5109241;27;20079;-70
2023/09/08 07:10:00;;;;;;;0.00;0.00;;;19.90;99.90;;;;;;5124509;27;20544;-69
2023/09/08 07:12:25;;;;;;;0.13;0.13;;;19.90;99.90;;;;;;5125766;27;20035;-69
2023/09/08 07:14:51;;;;;;;0.20;0.20;;;20.00;99.90;;;;;;5122083;27;20043;-69
2023/09/08 07:17:16;;;;;;;0.20;0.20;;;20.00;99.90;;;;;;5105029;27;20376;-70
2023/09/08 07:19:42;;;;;;;0.20;0.20;;;20.00;99.90;;;;;;5126516;27;20125;-69
2023/09/08 07:22:08;;;;;;;0.73;0.73;;;20.10;99.90;;;;;;5119994;27;20393;-70
2023/09/08 07:24:33;;;;;;;0.77;0.70;;;20.20;99.90;;;;;;5129962;27;20043;-69
2023/09/08 07:27:00;;;;;;;0.55;0.40;;;20.30;99.90;;;;;;5115840;27;20039;-69
2023/09/08 07:29:26;;;;;;;0.10;0.10;;;20.30;99.90;;;;;;5122958;27;20047;-70
2023/09/08 07:31:51;;;;;;;0.30;0.30;;;20.40;99.90;;;;;;5131889;27;20470;-69
2023/09/08 07:34:17;;;;;;;0.85;0.30;;;20.40;99.90;;;;;;5107276;27;20051;-69
2023/09/08 07:36:43;;;;;;;1.05;0.95;;;20.40;99.90;;;;;;5124150;27;20054;-70
2023/09/08 07:39:08;;;;;;;0.22;0.22;;;20.50;99.90;;;;;;5113296;27;20046;-69
2023/09/08 07:41:34;;;;;;;0.00;0.00;;;20.60;99.90;;;;;;5105518;27;20042;-69
2023/09/08 07:44:00;;;;;;;0.73;0.73;;;20.60;99.90;;;;;;5122731;27;20165;-69
2023/09/08 07:46:26;;;;;;;0.65;0.47;;;20.70;99.90;;;;;;5121833;27;20110;-69
2023/09/08 07:48:52;;;;;;;0.00;0.00;;;20.70;99.90;;;;;;5121026;27;20446;-69
2023/09/08 07:51:18;;;;;;;0.63;0.63;;;20.80;99.90;;;;;;5108801;28;20043;-69
2023/09/08 07:53:43;;;;;;;0.47;0.47;;;20.80;99.90;;;;;;5121043;27;20410;-69
2023/09/08 07:56:09;;;;;;;1.00;0.40;;;20.90;99.90;;;;;;5125925;27;20131;-69
2023/09/08 07:58:35;;;;;;;5.82;0.70;;;20.90;99.90;;;;;;5122053;27;20406;-69
2023/09/08 08:01:00;;;;;;;0.75;0.45;;;21.00;99.90;;;;;;5122990;27;20483;-70
2023/09/08 08:03:26;;;;;;;0.32;0.32;;;21.10;99.90;;;;;;5119758;27;20567;-69
2023/09/08 08:05:51;;;;;;;0.00;0.00;;;21.20;99.90;;;;;;5121529;27;20042;-70
2023/09/08 08:08:17;;;;;;;0.10;0.10;;;21.20;99.90;;;;;;5120449;27;20039;-70
2023/09/08 08:10:43;;;;;;;0.00;0.00;;;21.30;99.90;;;;;;5126619;27;20084;-69
2023/09/08 08:13:08;;;;;;;0.20;0.20;;;21.30;99.90;;;;;;5114920;27;20052;-69
2023/09/08 08:15:38;;;;;;;1.33;1.17;;;21.40;99.90;;;;;;5122461;27;20050;-69
2023/09/08 08:18:07;;;;;;;1.25;0.10;;;21.50;99.90;;;;;;5125466;27;20027;-70
2023/09/08 08:20:36;;;;;;;0.10;0.10;;;21.60;99.90;;;;;;5118487;27;20121;-69
2023/09/08 08:23:02;;;;;;;0.32;0.32;;;21.50;99.90;;;;;;5125485;27;20483;-69
2023/09/08 08:25:28;;;;;;;0.90;0.55;;;21.60;99.90;;;;;;5124146;27;20106;-69
2023/09/08 08:27:54;;;;;;;0.95;0.75;;;21.70;99.90;;;;;;5121710;27;20050;-70
2023/09/08 08:30:20;;;;;;;0.32;0.32;;;21.80;99.90;;;;;;5122889;27;20040;-70
2023/09/08 08:32:45;;;;;;;0.00;0.00;;;21.80;99.90;;;;;;5128343;27;20059;-70
2023/09/08 08:35:11;;;;;;;0.00;0.00;;;21.90;99.90;;;;;;5119217;27;20035;-69
2023/09/08 08:37:39;;;;;;;0.57;0.38;;;22.00;99.90;;;;;;5123910;27;20074;-69
2023/09/08 08:40:06;;;;;;;0.47;0.47;;;22.10;99.90;;;;;;5120635;27;20043;-69
2023/09/08 08:42:33;;;;;;;0.68;0.68;;;22.10;99.90;;;;;;5101922;28;20051;-70
2023/09/08 08:45:00;;;;;;;1.00;1.00;;;22.20;99.90;;;;;;5124227;27;20047;-70
2023/09/08 08:47:28;;;;;;;0.15;0.15;;;22.20;99.90;;;;;;5119740;27;20079;-69
2023/09/08 08:49:56;;;;;;;0.63;0.40;;;22.30;99.90;;;;;;5105721;27;20058;-69
2023/09/08 08:52:22;;;;;;;1.20;1.17;;;22.40;99.90;;;;;;5125007;27;20047;-69
2023/09/08 08:54:48;;;;;;;0.20;0.20;;;22.60;99.90;;;;;;5121208;27;20047;-69
2023/09/08 08:57:14;;;;;;;0.20;0.20;;;22.70;99.90;;;;;;5119713;27;20055;-69
2023/09/08 08:59:43;;;;;;;0.30;0.20;;;22.80;99.90;;;;;;5120063;27;20051;-70
2023/09/08 09:02:11;;;;;;;0.40;0.15;;;23.00;99.90;;;;;;5121315;27;20097;-70
2023/09/08 09:04:37;;;;;;;0.55;0.55;;;23.80;99.90;;;;;;5121378;27;20067;-70
2023/09/08 09:07:05;;;;;;;0.08;0.08;;;24.60;99.90;;;;;;5120911;27;20036;-70
2023/09/08 09:09:31;;;;;;;0.43;0.43;;;25.50;99.90;;;;;;5121474;27;20111;-70
2023/09/08 09:11:57;;;;;;;0.10;0.10;;;26.20;99.90;;;;;;5120015;27;20123;-71
2023/09/08 09:14:23;;;;;;;0.00;0.00;;;26.70;99.90;;;;;;5116316;27;20052;-71
2023/09/08 09:16:49;;;;;;;0.50;0.10;;;27.20;99.90;;;;;;5120359;27;20043;-70
2023/09/08 09:19:27;;;;;;;0.43;0.40;;;27.40;99.90;;;;;;5120242;27;20044;-71
2023/09/08 09:21:54;;;;;;;0.17;0.17;;;27.70;99.90;;;;;;5119475;27;20046;-71
2023/09/08 09:24:40;;;;;;;0.00;0.00;;;28.00;99.90;;;;;;5115108;27;20390;-71
2023/09/08 09:27:07;;;;;;;0.75;0.38;;;28.20;99.90;;;;;;5126906;27;20039;-71
2023/09/08 09:29:33;;;;;;;0.93;0.15;;;28.60;99.90;;;;;;5119161;27;20040;-71
2023/09/08 09:32:07;;;;;;;2.28;0.50;;;28.50;99.90;;;;;;5121577;28;20899;-71
2023/09/08 09:34:34;;;;;;;0.00;0.00;;;28.60;99.90;;;;;;5123401;28;20389;-71
2023/09/08 09:37:00;;;;;;;0.30;0.30;;;28.80;99.90;;;;;;5116201;28;20478;-71
2023/09/08 09:39:26;;;;;;;0.00;0.00;;;29.10;99.90;;;;;;5120813;28;20128;-71
2023/09/08 09:41:57;;;;;;;0.77;0.68;;;29.20;99.90;;;;;;5121674;28;20085;-71
2023/09/08 09:44:24;;;;;;;1.80;0.28;;;29.30;99.90;;;;;;5116626;28;20047;-71
2023/09/08 09:46:52;;;;;;;0.95;0.85;;;29.20;99.90;;;;;;5120600;28;20046;-71
2023/09/08 09:49:19;;;;;;;0.10;0.10;;;29.30;99.90;;;;;;5123355;28;20051;-71
2023/09/08 09:51:47;;;;;;;0.25;0.25;;;29.60;99.90;;;;;;5111789;28;20051;-71
2023/09/08 09:54:14;;;;;;;0.10;0.10;;;29.50;99.90;;;;;;5103293;27;20036;-71
2023/09/08 09:56:41;;;;;;;1.05;0.82;;;29.60;99.90;;;;;;5127509;27;20039;-71
2023/09/08 09:59:12;;;;;;;0.35;0.35;;;29.90;99.90;;;;;;5126124;27;20060;-71
2023/09/08 10:01:39;;;;;;;0.10;0.10;;;29.90;99.90;;;;;;5122773;27;20410;-71
2023/09/08 10:04:05;;;;;;;0.00;0.00;;;30.10;99.90;;;;;;5127755;27;20051;-71
2023/09/08 10:06:33;;;;;;;0.00;0.00;;;30.20;99.90;;;;;;5127245;27;20031;-71
2023/09/08 10:09:01;;;;;;;0.80;0.80;;;30.10;99.90;;;;;;5105768;27;20069;-71
2023/09/08 10:11:29;;;;;;;0.38;0.38;;;30.10;99.90;;;;;;5127549;27;20039;-70
2023/09/08 10:13:58;;;;;;;0.40;0.40;;;29.80;99.90;;;;;;5124467;27;20494;-71
2023/09/08 10:16:28;;;;;;;0.00;0.00;;;29.80;99.90;;;;;;5121629;27;20154;-71
2023/09/08 10:18:57;;;;;;;0.00;0.00;;;29.60;99.90;;;;;;5127642;27;20066;-71
2023/09/08 10:21:26;;;;;;;0.00;0.00;;;29.50;99.90;;;;;;5125216;27;20043;-70
2023/09/08 10:24:05;;;;;;;0.20;0.20;;;29.40;99.90;;;;;;5122630;27;20122;-71
2023/09/08 10:26:34;;;;;;;0.10;0.10;;;29.30;99.90;;;;;;5111484;27;20400;-70
2023/09/08 10:29:01;;;;;;;0.00;0.00;;;29.30;99.90;;;;;;5123927;27;20069;-70
2023/09/08 10:31:28;;;;;;;0.00;0.00;;;29.10;99.90;;;;;;5124189;27;20612;-70
2023/09/08 10:33:57;;;;;;;0.32;0.30;;;29.10;99.90;;;;;;5128156;27;20062;-70
2023/09/08 10:36:24;;;;;;;1.67;0.50;;;29.20;99.90;;;;;;5124479;27;20046;-71
2023/09/08 10:38:51;;;;;;;0.20;0.20;;;29.10;99.90;;;;;;5126411;27;20054;-70
2023/09/08 10:41:17;;;;;;;0.17;0.17;;;29.20;99.90;;;;;;5122024;27;20478;-70
2023/09/08 10:44:07;;;;;;;2.10;0.25;;;29.10;99.90;;;;;;5128013;27;20065;-70
2023/09/08 10:46:34;;;;;;;4.28;0.45;;;29.10;99.90;;;;;;5123699;27;20035;-70
2023/09/08 10:49:06;;;;;;;4.47;0.45;;;29.30;99.90;;;;;;5122571;27;20379;-70
2023/09/08 10:51:33;;;;;;;0.77;0.40;;;29.20;99.90;;;;;;5127218;27;20578;-70
2023/09/08 10:53:59;;;;;;;0.30;0.30;;;29.30;99.90;;;;;;5131777;27;20047;-70
2023/09/08 10:56:47;;;;;;;0.45;0.28;;;29.40;99.90;;;;;;5123504;27;20088;-70
2023/09/08 10:59:13;;;;;;;0.00;0.00;;;29.50;99.90;;;;;;5126110;27;20046;-70
2023/09/08 11:01:38;;;;;;;0.10;0.10;;;29.50;99.90;;;;;;5126146;27;20039;-70
2023/09/08 11:04:08;;;;;;;0.10;0.10;;;29.70;99.90;;;;;;5124168;27;20035;-71
2023/09/08 11:06:34;;;;;;;0.00;0.00;;;29.80;99.90;;;;;;5119207;27;20039;-70
2023/09/08 11:09:07;;;;;;;0.00;0.00;;;30.00;99.90;;;;;;5122884;27;20096;-70
2023/09/08 11:11:33;;;;;;;0.20;0.20;;;30.10;99.90;;;;;;5118935;27;20122;-70
2023/09/08 11:13:59;;;;;;;0.00;0.00;;;30.20;99.90;;;;;;5127495;27;20043;-69
2023/09/08 11:16:29;;;;;;;0.15;0.15;;;30.30;99.90;;;;;;5120630;27;20113;-69
2023/09/08 11:18:54;;;;;;;3.15;1.23;;;30.20;99.90;;;;;;5122585;27;20078;-69
2023/09/08 11:21:20;;;;;;;0.00;0.00;;;30.40;99.90;;;;;;5120714;27;20070;-69
2023/09/08 11:23:47;;;;;;;0.10;0.10;;;30.60;99.90;;;;;;5129427;27;20042;-69
2023/09/08 11:26:13;;;;;;;0.55;0.20;;;30.70;99.90;;;;;;5126231;27;20039;-69
2023/09/08 11:28:40;;;;;;;0.00;0.00;;;30.70;99.90;;;;;;5123522;27;20054;-69
2023/09/08 11:31:07;;;;;;;0.00;0.00;;;30.80;99.90;;;;;;5118589;27;20035;-69
2023/09/08 11:33:39;;;;;;;0.68;0.38;;;30.90;99.90;;;;;;5124133;27;20076;-69
2023/09/08 11:36:12;;;;;;;0.30;0.20;;;31.20;99.90;;;;;;5126033;27;20446;-69
2023/09/08 11:38:38;;;;;;;5.57;0.60;;;31.20;99.90;;;;;;5123467;27;20047;-69
2023/09/08 11:41:04;;;;;;;0.28;0.28;;;31.40;99.90;;;;;;5115257;27;20084;-69
2023/09/08 11:43:32;;;;;;;1.15;0.38;;;31.50;99.90;;;;;;5122513;27;20096;-69
2023/09/08 11:45:59;;;;;;;0.80;0.80;;;31.50;99.90;;;;;;5122917;27;20039;-69
2023/09/08 11:48:25;;;;;;;1.17;0.57;;;31.50;99.90;;;;;;5127306;27;20040;-69
2023/09/08 11:50:53;;;;;;;0.00;0.00;;;31.50;99.90;;;;;;5123463;27;20039;-69
2023/09/08 11:53:20;;;;;;;0.45;0.45;;;31.80;99.90;;;;;;5121362;27;20051;-69
2023/09/08 11:55:46;;;;;;;0.17;0.17;;;31.70;99.90;;;;;;5129593;27;20383;-69
2023/09/08 11:58:12;;;;;;;0.65;0.50;;;31.90;99.90;;;;;;5122259;27;20035;-69
2023/09/08 12:00:39;;;;;;;0.75;0.65;;;32.00;99.90;;;;;;5124361;27;20047;-69
2023/09/08 12:03:11;;;;;;;0.40;0.40;;;32.10;99.90;;;;;;5123618;27;20115;-70
2023/09/08 12:05:37;;;;;;;;;;;32.20;99.90;;;;;;5123080;27;20596;-69
2023/09/08 12:08:07;;;;;;;0.13;0.13;;;32.10;99.90;;;;;;5120070;27;20007;-69
2023/09/08 12:10:42;;;;;;;0.00;0.00;;;32.20;99.90;;;;;;5125938;27;20062;-70
2023/09/08 12:13:09;;;;;;;1.33;1.05;;;32.40;99.90;;;;;;5124280;27;20123;-69
2023/09/08 12:15:41;;;;;;;0.70;0.70;;;32.40;99.90;;;;;;5126004;27;20046;-69
2023/09/08 12:18:08;;;;;;;4.70;1.25;;;32.50;99.90;;;;;;5109856;27;20035;-69
2023/09/08 12:20:36;;;;;;;1.33;0.20;;;32.60;99.90;;;;;;5118134;27;20035;-70
2023/09/08 12:23:04;;;;;;;0.40;0.40;;;32.80;99.90;;;;;;5122047;27;20044;-69
2023/09/08 12:25:33;;;;;;;2.10;0.30;;;32.90;99.90;;;;;;5121592;27;20398;-70
2023/09/08 12:27:59;;;;;;;0.22;0.22;;;32.90;99.90;;;;;;5118019;27;20134;-70
2023/09/08 12:30:34;;;;;;;0.20;0.20;;;33.00;99.90;;;;;;5122087;27;20043;-70
2023/09/08 12:33:02;;;;;;;0.25;0.15;;;33.00;99.90;;;;;;5103409;27;20122;-70
2023/09/08 12:35:28;;;;;;;0.17;0.17;;;33.40;99.90;;;;;;5122963;27;20075;-70
2023/09/08 12:38:01;;;;;;;0.60;0.55;;;33.40;99.90;;;;;;5125119;27;20065;-70
2023/09/08 12:40:28;;;;;;;0.47;0.35;;;33.50;99.90;;;;;;5120801;27;20311;-70
2023/09/08 12:42:54;;;;;;;0.00;0.00;;;33.70;99.90;;;;;;5122541;27;20907;-70
2023/09/08 12:45:23;;;;;;;0.00;0.00;;;33.80;99.90;;;;;;5124739;27;20042;-70